CSUN New Campus Station -PST Time - Most Recent Data on bottom of page




           Date/Time      Avg      Avg      Max     Wind      Avg      Max      Min      Avg      Avg    Total      Avg     Batt
                         Wind     Wind     Wind      Dir     Temp     Temp     Temp       RH      Bar     Rain    Solar     Volt
                      Spd MPH      Dir  Spd MPH   at Max    Deg_F    Deg_F    Deg_F        % Press_mb   Inches     W/m2      Min
--------------------------------------------------------------------------------------------------------------------------------
    11/19/2014 00:00      0.5       16      3.2        3     57.7     58.1     57.4       20     1019     0.00        0     13.5
    11/19/2014 00:15      1.9       46      4.9       54     58.1     58.4     58.0       18     1019     0.00        0     13.4
    11/19/2014 00:30      0.2       70      3.2       34     56.4     58.2     54.9       30     1019     0.00        0     13.5
    11/19/2014 00:45      0.0      248      0.0      248     54.7     55.2     53.6       32     1019     0.00        0     13.5
    11/19/2014 01:00      0.6      276      2.7      272     53.4     53.8     53.0       34     1019     0.00        0     13.5
    11/19/2014 01:15      0.5      291      2.1      277     53.3     53.5     53.1       32     1019     0.00        0     13.5
    11/19/2014 01:30      0.4      292      2.5      273     53.7     54.3     53.2       27     1019     0.00        0     13.5
    11/19/2014 01:45      0.0      292      0.6      290     53.8     54.3     53.4       26     1019     0.00        0     13.5
    11/19/2014 02:00      0.0      346      1.3      344     54.3     54.8     53.6       31     1018     0.00        0     13.5
    11/19/2014 02:15      0.7      343      2.2      350     53.6     54.2     52.8       26     1018     0.00        0     13.5
    11/19/2014 02:30      0.8       50      3.3       44     55.0     55.7     54.0       29     1018     0.00        0     13.5
    11/19/2014 02:45      0.1       86      1.4       94     53.2     54.3     52.5       29     1018     0.00        0     13.5
    11/19/2014 03:00      0.0        0      0.0       62     52.1     52.6     51.7       32     1018     0.00        0     13.5
    11/19/2014 03:15      0.0      266      1.1      266     52.3     52.6     51.7       33     1018     0.00        0     13.5
    11/19/2014 03:30      0.0      248      1.1      248     52.3     52.6     52.0       33     1019     0.00        0     13.5
    11/19/2014 03:45      0.0        0      0.0      103     52.0     52.3     51.6       33     1018     0.00        0     13.5
    11/19/2014 04:00      0.1        1      2.1       15     52.1     52.8     51.6       31     1018     0.00        0     13.5
    11/19/2014 04:15      0.8       12      2.8       15     53.2     53.6     52.7       35     1018     0.00        0     13.5
    11/19/2014 04:30      0.0        0      0.0      338     51.3     53.1     50.5       36     1018     0.00        0     13.5
    11/19/2014 04:45      0.0        0      0.0       36     49.9     50.8     48.8       42     1018     0.00        0     13.6
    11/19/2014 05:00      0.0      338      1.0      338     49.5     50.1     48.8       38     1018     0.00        0     13.6
    11/19/2014 05:15      0.0        0      0.0       19     49.9     50.2     49.5       38     1018     0.00        0     13.6
    11/19/2014 05:30      0.0        0      0.0       74     49.8     50.0     49.6       46     1018     0.00        0     13.6
    11/19/2014 05:45      0.0        0      0.0      250     49.6     49.8     49.3       43     1018     0.00        0     13.6
    11/19/2014 06:00      0.0        0      0.0      253     49.4     49.6     49.2       45     1019     0.00        0     13.6
    11/19/2014 06:15      0.0        0      0.0      295     49.7     50.1     49.3       47     1019     0.00        0     13.6
    11/19/2014 06:30      0.0        0      0.0      159     49.3     49.6     48.9       47     1019     0.00        1     13.6
    11/19/2014 06:45      0.0        0      0.0      331     48.7     49.1     48.3       48     1019     0.00        4     13.6
    11/19/2014 07:00      0.1      331      0.7      333     48.6     49.1     48.2       48     1019     0.00        8     13.6
    11/19/2014 07:15      0.0        0      0.0      326     48.1     48.5     47.8       48     1019     0.00       22     13.6
    11/19/2014 07:30      0.0        0      0.0      269     49.9     51.9     48.4       42     1019     0.00       67     13.6
    11/19/2014 07:45      0.1      190      1.8      191     53.0     53.8     51.8       40     1019     0.00       62     13.5
    11/19/2014 08:00      0.7      198      2.1      200     54.5     54.9     53.7       36     1019     0.00       32     13.5
    11/19/2014 08:15      0.2      252      1.9      238     55.2     56.0     54.7       31     1019     0.00       41     13.5
    11/19/2014 08:30      0.8      250      2.7      247     56.7     57.4     55.8       33     1019     0.00       48     13.5
    11/19/2014 08:45      0.0      234      1.2      237     58.1     59.2     57.2       28     1019     0.00       75     13.5
    11/19/2014 09:00      0.1      181      1.3      198     60.7     62.8     59.1       25     1019     0.00      295     13.4
    11/19/2014 09:15      0.0      193      0.9      187     64.6     66.7     62.8       21     1020     0.00      122     13.3
    11/19/2014 09:30      0.5      184      3.0      151     66.1     66.6     65.6       17     1020     0.00      367     13.3
    11/19/2014 09:45      0.4      147      2.3      172     66.4     67.2     65.4       15     1020     0.00      451     13.3
    11/19/2014 10:00      1.1      119      3.9      124     67.6     69.0     66.7       16     1020     0.00      554     13.2
    11/19/2014 10:15      0.8      141      3.4      146     69.3     70.6     68.5       13     1019     0.00      567     13.2
    11/19/2014 10:30      1.6      118      3.9      138     69.1     70.6     68.4       13     1019     0.00      501     13.2
    11/19/2014 10:45      1.2      160      5.7      134     69.3     70.5     68.5       14     1019     0.00      286     13.2
    11/19/2014 11:00      0.9       95      3.3      144     68.2     68.6     67.8       13     1019     0.00      272     13.2
    11/19/2014 11:15      1.6       82      5.0       63     68.6     69.3     68.1       13     1019     0.00      435     13.2
    11/19/2014 11:30      1.5      169      4.3      127     69.0     69.6     68.3       14     1018     0.00      325     13.2
    11/19/2014 11:45      1.4      149      3.8      155     68.5     69.0     68.0       14     1018     0.00      305     13.2
    11/19/2014 12:00      1.6      159      4.4      186     69.7     71.0     68.7       13     1018     0.00      427     13.2
    11/19/2014 12:15      0.9      247      3.3      218     70.5     71.0     69.8       13     1018     0.00      402     13.2
    11/19/2014 12:30      1.4      149      6.2      106     71.1     71.7     70.5       13     1018     0.00      572     13.2
    11/19/2014 12:45      1.8      160      5.5      170     71.2     72.2     69.9       13     1017     0.00      591     13.1
    11/19/2014 13:00      3.1      141      6.6      152     71.6     72.8     70.8       14     1017     0.00      508     13.1
    11/19/2014 13:15      2.3      231      7.6      246     72.1     73.1     71.3       14     1017     0.00      523     13.1
    11/19/2014 13:30      1.8      171      5.5      217     72.2     73.6     71.3       16     1017     0.00      494     13.1
    11/19/2014 13:45      2.7      218      6.9      163     72.3     73.3     71.7       16     1017     0.00      472     13.1
    11/19/2014 14:00      4.1      171      9.1      150     72.1     72.7     71.5       15     1017     0.00      448     13.1
    11/19/2014 14:15      2.1      235      6.5      205     73.4     74.2     72.3       14     1017     0.00      423     13.1
    11/19/2014 14:30      2.7      223      7.8      188     72.8     73.2     72.0       13     1017     0.00      377     13.1
    11/19/2014 14:45      2.2      161      5.1      157     72.8     73.2     72.0       14     1016     0.00      341     13.1
    11/19/2014 15:00      3.8      174      7.6      200     72.0     72.9     71.3       14     1016     0.00      309     13.1
    11/19/2014 15:15      2.5      187      6.4      199     71.5     72.3     70.3       16     1016     0.00      183     13.1
    11/19/2014 15:30      2.0      186      5.4      162     71.6     72.5     70.4       14     1016     0.00      246     13.1
    11/19/2014 15:45      3.0      207      8.2      198     71.0     71.9     69.4       25     1017     0.00      101     13.1
    11/19/2014 16:00      3.8      211      9.3      198     68.5     69.7     67.7       32     1017     0.00       48     13.2
    11/19/2014 16:15      1.6      221      4.4      201     68.0     68.3     67.7       35     1017     0.00       39     13.2
    11/19/2014 16:30      2.7      257      8.6      262     67.8     68.2     67.4       39     1017     0.00       26     13.2
    11/19/2014 16:45      4.0      281     10.6      290     66.7     67.5     66.0       44     1017     0.00       10     13.3
    11/19/2014 17:00      3.7      274     10.5      246     65.5     66.0     65.1       46     1017     0.00        3     13.3
    11/19/2014 17:15      2.1      280      5.9      285     64.8     65.3     64.4       46     1017     0.00        0     13.3
    11/19/2014 17:30      1.7      283      4.9      287     64.0     64.5     63.5       43     1017     0.00        0     13.3
    11/19/2014 17:45      0.4      285      2.8      288     63.3     63.7     62.8       44     1017     0.00        0     13.3
    11/19/2014 18:00      0.9      274      3.7      245     62.5     63.0     62.1       43     1017     0.00        0     13.3
    11/19/2014 18:15      1.4      275      6.8      263     62.2     62.5     61.8       35     1017     0.00        0     13.3
    11/19/2014 18:30      2.6      268      6.7      249     62.3     62.6     61.9       35     1018     0.00        0     13.4
    11/19/2014 18:45      1.9      259      5.4      241     61.6     62.0     61.2       37     1018     0.00        0     13.4
    11/19/2014 19:00      1.8      260      6.5      246     61.0     61.4     60.8       37     1018     0.00        0     13.4
    11/19/2014 19:15      1.5      266      4.8      251     60.8     61.1     60.4       40     1018     0.00        0     13.4
    11/19/2014 19:30      0.6      295      4.6      251     60.3     60.8     59.9       43     1018     0.00        0     13.4
    11/19/2014 19:45      1.4      261      4.6      250     59.6     60.1     58.9       47     1018     0.00        0     13.4
    11/19/2014 20:00      0.4      258      2.3      232     58.4     59.1     58.0       46     1018     0.00        0     13.4
    11/19/2014 20:15      0.0        0      0.0      296     57.8     58.4     57.1       46     1018     0.00        0     13.4
    11/19/2014 20:30      0.0        0      0.0      318     57.0     57.3     56.5       46     1018     0.00        0     13.4
    11/19/2014 20:45      0.0        0      0.0      227     56.3     56.7     55.9       52     1018     0.00        0     13.4
    11/19/2014 21:00      0.3      317      2.5      307     56.5     56.9     56.1       48     1018     0.00        0     13.4
    11/19/2014 21:15      0.0      315      1.0      309     56.2     56.6     55.6       45     1018     0.00        0     13.4
    11/19/2014 21:30      0.2      332      1.3      337     55.5     55.8     55.2       43     1018     0.00        0     13.5
    11/19/2014 21:45      0.0        0      0.0      344     54.6     55.5     54.1       44     1018     0.00        0     13.5
    11/19/2014 22:00      0.0        0      0.0      326     53.9     54.8     53.3       46     1018     0.00        0     13.5
    11/19/2014 22:15      0.1       52      1.2       50     53.6     54.2     53.2       47     1018     0.00        0     13.5
    11/19/2014 22:30      0.1      353      1.7        0     53.0     54.1     52.2       53     1018     0.00        0     13.5
    11/19/2014 22:45      0.3      335      1.3      344     53.0     53.6     52.0       54     1018     0.00        0     13.5
    11/19/2014 23:00      0.3      342      1.9      345     52.0     53.0     51.6       56     1018     0.00        0     13.5
    11/19/2014 23:15      0.4      339      1.8      342     52.9     53.1     52.7       53     1018     0.00        0     13.5
    11/19/2014 23:30      0.0        0      0.0      335     52.0     52.7     51.4       58     1018     0.00        0     13.5
    11/19/2014 23:45      0.1      344      1.6      349     51.3     51.8     51.0       61     1018     0.00        0     13.5
    11/20/2014 00:00      0.8      350      1.8      354     52.2     52.6     51.5       58     1018     0.00        0     13.5
    11/20/2014 00:15      0.0        0      0.0      345     51.8     52.5     51.0       58     1018     0.00        0     13.5
    11/20/2014 00:30      0.0        0      0.0       51     50.6     51.1     50.3       59     1017     0.00        0     13.5
    11/20/2014 00:45      0.0       29      1.8        8     50.3     50.5     50.0       59     1017     0.00        0     13.6
    11/20/2014 01:00      1.0       36      2.8       41     50.9     52.3     49.9       57     1017     0.00        0     13.6
    11/20/2014 01:15      0.2       21      2.8       29     51.7     52.4     51.0       59     1017     0.00        0     13.6
    11/20/2014 01:30      0.1       36      1.8       42     51.5     52.1     51.0       62     1017     0.00        0     13.6
    11/20/2014 01:45      0.2       68      1.5       63     50.5     51.1     49.8       64     1017     0.00        0     13.6
    11/20/2014 02:00      0.4       62      2.5       82     50.2     50.5     49.9       62     1017     0.00        0     13.6
    11/20/2014 02:15      0.7       58      2.1       57     50.2     50.5     49.7       62     1017     0.00        0     13.6
    11/20/2014 02:30      0.0        0      0.0       75     49.4     49.9     49.1       64     1017     0.00        0     13.6
    11/20/2014 02:45      0.0        0      0.0        1     49.8     50.0     49.4       63     1017     0.00        0     13.6
    11/20/2014 03:00      0.5      341      2.2      337     49.6     49.9     49.3       65     1017     0.00        0     13.6
    11/20/2014 03:15      0.5      345      2.1      343     49.9     50.2     49.7       66     1017     0.00        0     13.6
    11/20/2014 03:30      0.0        0      0.0      323     49.5     49.9     49.2       70     1017     0.00        0     13.6
    11/20/2014 03:45      0.0        0      0.0        2     49.1     49.6     48.8       72     1017     0.00        0     13.6
    11/20/2014 04:00      0.0        0      0.0      341     48.8     49.4     47.9       73     1017     0.00        0     13.6
    11/20/2014 04:15      0.0        0      0.0      332     47.5     48.1     47.0       76     1017     0.00        0     13.6
    11/20/2014 04:30      0.0        0      0.0      123     47.2     47.5     46.9       76     1017     0.00        0     13.6
    11/20/2014 04:45      0.0        0      0.0      164     47.0     47.3     46.8       77     1017     0.00        0     13.6
    11/20/2014 05:00      0.0        0      0.0      311     47.2     47.4     46.9       76     1017     0.00        0     13.6
    11/20/2014 05:15      0.0        0      0.0      325     46.4     46.9     46.1       80     1017     0.00        0     13.6
    11/20/2014 05:30      0.0        0      0.0      320     46.9     47.1     46.6       80     1017     0.00        0     13.6
    11/20/2014 05:45      0.0        0      0.0      332     47.2     47.4     46.9       80     1017     0.00        0     13.6
    11/20/2014 06:00      0.0        0      0.0      351     46.9     47.3     46.6       81     1018     0.00        0     13.6
    11/20/2014 06:15      0.0        0      0.0      351     46.8     47.1     46.5       82     1018     0.00        0     13.6
    11/20/2014 06:30      0.0        0      0.0      315     46.2     46.9     45.8       82     1018     0.00        1     13.6
    11/20/2014 06:45      0.0        0      0.0      290     45.7     46.0     45.5       82     1018     0.00        6     13.6
    11/20/2014 07:00      0.0        0      0.0      284     45.7     46.3     45.4       81     1018     0.00       24     13.6
    11/20/2014 07:15      0.4      343      1.8      340     47.2     48.1     46.2       75     1018     0.00       37     13.6
    11/20/2014 07:30      0.0      349      0.8      354     49.1     50.5     48.0       74     1018     0.00       49     13.6
    11/20/2014 07:45      0.0        0      0.0      335     52.9     53.7     50.5       64     1018     0.00       54     13.6
    11/20/2014 08:00      0.1       75      1.4       70     53.6     54.3     53.1       62     1018     0.00       37     13.5
    11/20/2014 08:15      0.2       78      1.4       64     54.7     55.2     54.1       61     1018     0.00       46     13.5
    11/20/2014 08:30      0.0      178      0.7      183     55.6     56.3     55.1       57     1018     0.00       54     13.5
    11/20/2014 08:45      0.1      171      1.2      173     56.6     57.2     56.1       55     1018     0.00       71     13.5
    11/20/2014 09:00      0.6      130      2.6      225     58.2     59.1     57.1       54     1018     0.00      307     13.4
    11/20/2014 09:15      0.7      203      2.5      190     60.0     60.6     58.9       52     1018     0.00       88     13.4
    11/20/2014 09:30      1.4       96      4.4       99     61.2     61.7     60.5       53     1018     0.00      358     13.3
    11/20/2014 09:45      1.5       69      4.1       48     61.5     62.3     60.8       53     1018     0.00      449     13.3
    11/20/2014 10:00      1.1      112      3.7       79     62.8     64.2     61.7       51     1018     0.00      475     13.3
    11/20/2014 10:15      1.3      197      4.1      179     64.3     65.0     63.8       49     1018     0.00      507     13.2
    11/20/2014 10:30      1.7      160      4.6      143     64.7     65.5     63.9       47     1018     0.00      548     13.2
    11/20/2014 10:45      2.6      148      6.1      154     65.2     65.9     64.5       46     1018     0.00      566     13.2
    11/20/2014 11:00      1.2      166      4.0      264     65.8     66.5     65.3       34     1018     0.00      567     13.2
    11/20/2014 11:15      0.7      211      2.5      255     66.2     66.7     65.7       39     1017     0.00      525     13.2
    11/20/2014 11:30      1.1      187      4.7      157     66.6     67.8     65.4       39     1017     0.00      591     13.2
    11/20/2014 11:45      2.5      143      6.4      171     66.4     67.6     65.6       45     1017     0.00      320     13.2
    11/20/2014 12:00      3.3      148      6.3      142     65.9     66.6     65.6       44     1016     0.00      390     13.2
    11/20/2014 12:15      4.0      149      7.4      181     66.8     67.3     66.2       46     1016     0.00      427     13.2
    11/20/2014 12:30      3.8      159      7.9      136     66.2     66.5     65.8       47     1016     0.00      342     13.2
    11/20/2014 12:45      2.7      149      5.7      135     67.4     68.2     66.3       45     1016     0.00      385     13.2
    11/20/2014 13:00      2.1      152      6.9      145     66.6     67.3     66.2       46     1015     0.00      231     13.2
    11/20/2014 13:15      3.1      162      6.8      147     66.3     66.7     66.0       47     1015     0.00      196     13.2
    11/20/2014 13:30      2.4      181      7.4      178     66.0     66.3     65.7       49     1015     0.00      143     13.2
    11/20/2014 13:45      3.1      184      6.7      198     65.8     66.3     65.5       49     1015     0.00      148     13.3
    11/20/2014 14:00      2.4      211      6.3      249     65.8     66.5     65.4       55     1015     0.00      109     13.3
    11/20/2014 14:15      3.7      262      8.4      256     65.3     65.8     65.0       57     1015     0.00       77     13.3
    11/20/2014 14:30      2.5      275      6.2      254     65.0     65.3     64.7       58     1015     0.00       51     13.3
    11/20/2014 14:45      4.6      259     11.2      247     64.5     64.9     64.0       58     1015     0.00       33     13.3
    11/20/2014 15:00      4.5      271     12.2      251     63.8     64.2     63.4       59     1015     0.00       36     13.3
    11/20/2014 15:15      5.4      269     12.8      257     63.4     63.7     62.9       63     1015     0.00       37     13.3
    11/20/2014 15:30      4.5      268      9.5      258     62.9     63.1     62.6       64     1015     0.00       31     13.3
    11/20/2014 15:45      3.2      280      9.1      270     62.6     62.9     62.3       65     1015     0.00       29     13.3
    11/20/2014 16:00      4.4      259     10.7      250     62.2     62.5     62.0       66     1014     0.00       37     13.3
    11/20/2014 16:15      3.2      255     10.5      251     62.0     62.3     61.8       67     1014     0.00       32     13.3
    11/20/2014 16:30      2.5      233      6.5      254     61.6     61.9     61.4       68     1015     0.00       12     13.3
    11/20/2014 16:45      2.5      233      7.4      251     61.4     61.7     61.2       67     1015     0.00       11     13.3
    11/20/2014 17:00      2.7      241      7.6      233     61.1     61.4     60.8       69     1014     0.00        2     13.4
    11/20/2014 17:15      3.4      260      7.0      260     60.7     61.0     60.4       70     1014     0.00        0     13.4
    11/20/2014 17:30      2.1      266      5.0      258     60.4     60.6     60.1       71     1014     0.00        0     13.4
    11/20/2014 17:45      1.1      261      3.0      263     60.0     60.3     59.6       72     1014     0.00        0     13.4
    11/20/2014 18:00      2.2      245      5.1      255     59.8     60.2     59.6       71     1014     0.00        0     13.4
    11/20/2014 18:15      1.5      245      4.8      248     59.8     60.1     59.5       71     1014     0.00        0     13.4
    11/20/2014 18:30      1.0      227      3.3      254     59.6     60.0     59.1       72     1014     0.00        0     13.4
    11/20/2014 18:45      0.7      213      2.5      199     59.0     59.3     58.6       74     1014     0.00        0     13.4
    11/20/2014 19:00      2.1      200      4.6      177     59.0     59.3     58.6       74     1014     0.00        0     13.4
    11/20/2014 19:15      1.6      223      5.0      173     59.2     59.5     58.9       73     1014     0.00        0     13.4
    11/20/2014 19:30      1.5      219      4.0      201     59.4     59.6     59.1       73     1014     0.00        0     13.4
    11/20/2014 19:45      1.3      258      4.1      248     59.5     59.7     59.2       73     1015     0.00        0     13.4
    11/20/2014 20:00      0.4      227      2.0      224     59.4     59.7     59.2       74     1014     0.00        0     13.4
    11/20/2014 20:15      1.4      231      6.3      257     59.4     59.7     59.2       74     1014     0.00        0     13.4
    11/20/2014 20:30      1.4      229      4.5      245     59.6     59.8     59.4       74     1014     0.00        0     13.4
    11/20/2014 20:45      0.7      158      2.2      161     59.2     59.6     58.8       74     1014     0.00        0     13.4
    11/20/2014 21:00      0.9      211      3.9      194     58.8     59.0     58.6       75     1014     0.00        0     13.4
    11/20/2014 21:15      1.7      225      4.4      210     59.0     59.2     58.7       75     1014     0.00        0     13.4
    11/20/2014 21:30      0.1      264      1.2      225     59.0     59.3     58.7       75     1014     0.00        0     13.4
    11/20/2014 21:45      0.5       88      2.7      134     59.0     59.2     58.7       78     1014     0.00        0     13.4
    11/20/2014 22:00      0.7      138      2.6      120     58.2     58.9     57.5       81     1014     0.00        0     13.4
    11/20/2014 22:15      0.5      106      1.8      139     57.5     57.8     57.2       84     1013     0.00        0     13.4
    11/20/2014 22:30      0.2       97      1.5      104     57.2     57.5     56.8       84     1013     0.00        0     13.4
    11/20/2014 22:45      0.0        0      0.0      115     56.6     57.0     56.4       85     1014     0.00        0     13.4
    11/20/2014 23:00      0.5      309      1.5      330     56.5     56.7     56.3       86     1014     0.00        0     13.4
    11/20/2014 23:15      1.7      291      3.4      290     56.4     56.5     56.2       86     1014     0.00        0     13.4
    11/20/2014 23:30      1.5      288      4.1      278     56.3     56.5     56.1       87     1014     0.00        0     13.4
    11/20/2014 23:45      1.0      249      4.4      255     56.3     56.5     56.0       86     1014     0.00        0     13.4
    11/21/2014 00:00      1.1      267      2.6      255     56.3     56.4     56.1       85     1014     0.00        0     13.4
    11/21/2014 00:15      0.6      185      2.1      183     56.3     56.4     56.1       85     1014     0.00        0     13.4
    11/21/2014 00:30      2.0      163      4.9      190     56.3     56.5     56.1       85     1014     0.00        0     13.4
    11/21/2014 00:45      3.4      195      6.6      197     55.8     56.1     55.5       85     1013     0.00        0     13.4
    11/21/2014 01:00      2.2      245      5.6      253     55.5     55.7     55.3       84     1013     0.00        0     13.4
    11/21/2014 01:15      1.3      266      6.0      256     55.4     55.6     55.1       84     1013     0.00        0     13.4
    11/21/2014 01:30      2.7      248      6.4      250     54.9     55.3     54.5       85     1013     0.00        0     13.5
    11/21/2014 01:45      1.7      275      6.1      235     55.5     55.7     55.1       83     1013     0.00        0     13.5
    11/21/2014 02:00      1.1      276      3.2      257     55.1     55.6     54.7       83     1013     0.00        0     13.5
    11/21/2014 02:15      2.0      267      4.3      256     54.9     55.1     54.6       84     1013     0.00        0     13.5
    11/21/2014 02:30      1.8      275      4.6      255     54.7     55.0     54.5       83     1013     0.00        0     13.5
    11/21/2014 02:45      1.6      274      5.0      269     55.0     55.4     54.7       82     1013     0.00        0     13.5
    11/21/2014 03:00      1.2      219      3.5      263     54.7     55.3     53.9       82     1013     0.00        0     13.5
    11/21/2014 03:15      0.7        9      2.8        5     54.0     54.3     53.7       84     1013     0.00        0     13.5
    11/21/2014 03:30      0.2      257      1.1      236     53.3     54.2     52.7       85     1013     0.00        0     13.5
    11/21/2014 03:45      0.3      279      1.4      274     52.7     53.1     52.3       86     1012     0.00        0     13.5
    11/21/2014 04:00      0.6      322      2.1      264     52.3     52.5     52.0       87     1012     0.00        0     13.5
    11/21/2014 04:15      0.5      300      1.5      212     51.6     52.4     50.5       87     1012     0.00        0     13.5
    11/21/2014 04:30      0.7       54      2.4      130     51.0     51.7     50.4       89     1012     0.00        0     13.5
    11/21/2014 04:45      0.6      342      2.9      335     51.2     51.8     50.5       88     1012     0.00        0     13.5
    11/21/2014 05:00      0.9       88      3.1       39     50.6     51.4     49.9       89     1012     0.00        1     13.5
    11/21/2014 05:15      0.8       44      3.8       77     50.9     51.4     50.3       89     1012     0.00        1     13.5
    11/21/2014 05:30      0.9      335      4.1      257     50.2     50.7     49.5       89     1012     0.00        1     13.5
    11/21/2014 05:45      1.3      309      8.2        1     50.0     50.5     49.5       89     1012     0.00        1     13.5
    11/21/2014 06:00      3.9      319     14.7      354     55.0     57.8     49.7       55     1013     0.00        0     13.5
    11/21/2014 06:15      2.0      309      6.3      294     56.9     57.5     56.5       55     1012     0.00        0     13.5
    11/21/2014 06:30      1.7      258      6.2      139     56.6     57.2     55.3       68     1012     0.00        1     13.5
    11/21/2014 06:45      2.1      145      6.0      155     53.2     55.2     52.1       77     1013     0.00        5     13.5
    11/21/2014 07:00      0.3      312      1.9      283     51.9     52.2     51.6       78     1013     0.00       24     13.5
    11/21/2014 07:15      1.4      324      8.5      122     54.2     56.7     52.0       58     1013     0.00       26     13.5
    11/21/2014 07:30      0.6       63      2.9      105     56.8     57.7     56.5       58     1013     0.00       37     13.5
    11/21/2014 07:45      2.1       18      9.5      305     58.0     58.5     57.5       53     1013     0.00       48     13.5
    11/21/2014 08:00      4.2       74     10.9       97     59.5     60.0     58.3       48     1013     0.00       27     13.5
    11/21/2014 08:15      2.5      222      6.3      229     60.1     60.5     59.5       48     1014     0.00       39     13.4
    11/21/2014 08:30      2.6      158      5.3      170     60.6     61.0     60.2       47     1014     0.00       43     13.4
    11/21/2014 08:45      2.0      174      6.8      192     61.3     61.9     60.8       46     1014     0.00       63     13.4
    11/21/2014 09:00      2.3      201      5.7      202     62.1     63.0     61.7       44     1014     0.00      310     13.4
    11/21/2014 09:15      2.3      256      6.6      353     63.5     64.0     62.9       41     1014     0.00       67     13.3
    11/21/2014 09:30      2.8      322      7.6      322     64.4     64.9     63.8       37     1014     0.00      335     13.3
    11/21/2014 09:45      3.0      321      8.1      347     64.8     65.2     64.3       36     1014     0.00      455     13.3
    11/21/2014 10:00      3.5      321      9.8        4     65.0     65.6     64.6       34     1014     0.00      483     13.3
    11/21/2014 10:15      4.1      320     10.8      296     65.5     66.2     65.1       34     1014     0.00      508     13.2
    11/21/2014 10:30      3.8      319     10.4        2     66.2     66.8     65.5       34     1014     0.00      530     13.2
    11/21/2014 10:45      3.6      326     10.8      329     66.8     67.3     66.3       34     1014     0.00      549     13.2
    11/21/2014 11:00      4.3      309     12.4      346     67.0     67.9     66.5       33     1014     0.00      563     13.2
    11/21/2014 11:15      4.0      319      9.5      332     68.1     68.5     67.5       32     1014     0.00      575     13.2
    11/21/2014 11:30      4.1      318      9.3      337     68.7     69.0     68.4       32     1013     0.00      581     13.2
    11/21/2014 11:45      2.9      313      8.2        0     68.8     69.5     68.3       31     1013     0.00      582     13.2
    11/21/2014 12:00      3.1      333     10.3      344     70.2     70.9     69.2       29     1013     0.00      582     13.2
    11/21/2014 12:15      3.3      332     12.6      339     70.5     71.5     70.0       27     1013     0.00      576     13.2
    11/21/2014 12:30      3.9      316     10.7      327     71.4     72.2     70.6       27     1013     0.00      569     13.1
    11/21/2014 12:45      3.2      315     10.0       12     71.9     72.3     71.1       26     1012     0.00      555     13.1
    11/21/2014 13:00      3.3      323     11.7      351     71.7     72.2     71.4       25     1012     0.00      538     13.1
    11/21/2014 13:15      3.2      302      8.8      288     72.5     73.5     71.8       25     1012     0.00      517     13.1
    11/21/2014 13:30      4.0      308     13.8      315     72.4     73.1     71.9       24     1012     0.00      494     13.1
    11/21/2014 13:45      2.5      305      6.3      312     72.8     73.2     72.4       23     1012     0.00      467     13.1
    11/21/2014 14:00      3.3      341      9.4      318     73.0     73.3     72.6       23     1012     0.00      437     13.1
    11/21/2014 14:15      2.7      328      7.5      334     72.8     73.1     72.5       24     1012     0.00      405     13.1
    11/21/2014 14:30      2.9      313      9.1      323     73.0     73.5     72.6       23     1012     0.00      369     13.1
    11/21/2014 14:45      2.5      317      6.3      345     73.1     73.5     72.8       23     1012     0.00      333     13.1
    11/21/2014 15:00      2.8      302      5.9      259     72.7     73.2     72.3       23     1012     0.00      293     13.1
    11/21/2014 15:15      3.1      300     10.5      342     72.5     72.8     72.1       23     1012     0.00      253     13.1
    11/21/2014 15:30      3.9      279     10.0      238     71.7     72.6     70.8       30     1012     0.00      206     13.1
    11/21/2014 15:45      4.1      288     10.5      275     70.3     71.1     69.9       32     1012     0.00      166     13.1
    11/21/2014 16:00      3.9      279      9.1      263     69.9     70.3     69.2       33     1012     0.00      126     13.2
    11/21/2014 16:15      4.7      278      9.3      290     68.5     69.5     67.7       34     1013     0.00       46     13.2
    11/21/2014 16:30      2.7      292      6.4      311     67.6     67.9     67.1       35     1013     0.00       15     13.2
    11/21/2014 16:45      1.7      296      5.4      301     67.0     67.3     66.5       28     1013     0.00        9     13.3
    11/21/2014 17:00      3.6      329      9.1      350     66.4     66.7     66.2       28     1013     0.00        3     13.3
    11/21/2014 17:15      1.2      310      7.5      354     65.5     66.4     64.5       31     1013     0.00        0     13.3
    11/21/2014 17:30      2.6      329      9.2      354     64.3     64.7     64.0       32     1014     0.00        0     13.3
    11/21/2014 17:45      3.6      341      8.6       57     64.1     64.3     64.0       32     1014     0.00        0     13.3
    11/21/2014 18:00      3.7      342      9.6      348     63.9     64.2     63.7       33     1014     0.00        0     13.3
    11/21/2014 18:15      4.1      345     11.6      345     63.4     64.0     62.8       34     1014     0.00        0     13.3
    11/21/2014 18:30      5.2      349     12.7      342     62.7     63.0     62.3       35     1014     0.00        0     13.4
    11/21/2014 18:45      1.2      310      5.9      295     61.8     62.5     60.9       39     1014     0.00        0     13.4
    11/21/2014 19:00      0.0      276      0.8      287     60.2     61.0     59.5       41     1014     0.00        0     13.4
    11/21/2014 19:15      1.4      272      6.5      344     60.3     60.8     59.3       41     1015     0.00        0     13.4
    11/21/2014 19:30      1.5      288      7.7      279     60.5     61.1     59.8       39     1015     0.00        0     13.4
    11/21/2014 19:45      1.6      296      6.1      242     61.6     62.0     60.9       36     1015     0.00        0     13.4
    11/21/2014 20:00      2.8      299      7.0      287     62.1     62.5     61.6       36     1015     0.00        0     13.4
    11/21/2014 20:15      2.4      274      6.7      253     61.6     62.2     61.0       43     1015     0.00        0     13.4
    11/21/2014 20:30      2.0      287      6.8      256     61.1     61.5     60.5       36     1016     0.00        0     13.4
    11/21/2014 20:45      2.7      350      8.1      331     61.3     61.6     60.9       36     1016     0.00        0     13.4
    11/21/2014 21:00      1.7      297      3.9      296     59.9     61.3     58.5       48     1016     0.00        0     13.4
    11/21/2014 21:15      0.1      287      1.7      267     57.9     58.6     57.5       52     1016     0.00        0     13.4
    11/21/2014 21:30      0.0        0      0.0      354     57.2     57.9     56.4       55     1016     0.00        0     13.4
    11/21/2014 21:45      0.0      189      1.6      216     56.7     57.1     56.3       54     1016     0.00        0     13.5
    11/21/2014 22:00      0.7       91      2.8       74     56.9     57.4     56.6       47     1016     0.00        0     13.5
    11/21/2014 22:15      0.0      109      1.0      106     56.7     57.2     56.2       48     1016     0.00        0     13.5
    11/21/2014 22:30      0.5      298      2.0      293     55.4     56.3     54.5       51     1016     0.00        0     13.5
    11/21/2014 22:45      0.9      331      2.4      347     54.4     54.8     53.9       56     1016     0.00        0     13.5
    11/21/2014 23:00      0.2      318      2.3      334     54.0     54.8     53.1       60     1016     0.00        0     13.5
    11/21/2014 23:15      0.0        0      0.0      293     53.0     53.4     52.5       62     1016     0.00        0     13.5
    11/21/2014 23:30      0.0       43      0.7       36     52.7     53.0     52.4       62     1017     0.00        0     13.5
    11/21/2014 23:45      0.0      334      2.0      340     53.0     53.3     52.8       62     1017     0.00        0     13.5
    11/22/2014 00:00      0.5       55      3.8       58     52.4     53.2     51.8       64     1017     0.00        0     13.5
    11/22/2014 00:15      0.2       63      3.0       52     52.5     53.4     51.7       63     1017     0.00        0     13.5
    11/22/2014 00:30      0.6      286      2.6      256     51.1     51.9     50.7       67     1017     0.00        0     13.5
    11/22/2014 00:45      0.5      333      2.1      345     51.8     52.1     51.3       64     1017     0.00        0     13.5
    11/22/2014 01:00      0.7       73      2.9      103     51.5     52.1     51.0       65     1017     0.00        0     13.5
    11/22/2014 01:15      0.2      351      2.5       12     51.3     51.8     50.1       66     1017     0.00        0     13.5
    11/22/2014 01:30      0.9      206      3.5       39     49.9     50.4     49.2       68     1017     0.00        0     13.5
    11/22/2014 01:45      0.2      257      1.5      254     50.1     50.5     49.8       69     1017     0.00        0     13.6
    11/22/2014 02:00      0.0        0      0.0      247     49.9     50.9     49.3       70     1017     0.00        0     13.6
    11/22/2014 02:15      0.0        0      0.0       83     49.4     49.7     49.1       71     1017     0.00        0     13.6
    11/22/2014 02:30      0.3       87      1.9       83     49.6     49.9     49.3       70     1017     0.00        0     13.6
    11/22/2014 02:45      0.0        0      0.0       81     48.6     49.4     48.2       72     1017     0.00        0     13.6
    11/22/2014 03:00      0.0        0      0.0      295     48.5     48.8     48.3       71     1017     0.00        0     13.6
    11/22/2014 03:15      0.1      327      1.5      325     48.3     48.7     47.9       73     1017     0.00        0     13.6
    11/22/2014 03:30      0.6      325      1.9      337     48.8     49.2     47.9       70     1017     0.00        0     13.6
    11/22/2014 03:45      0.2      337      1.3      326     48.9     49.2     48.6       69     1017     0.00        0     13.6
    11/22/2014 04:00      0.1      318      1.3      340     47.9     48.6     47.5       73     1017     0.00        0     13.6
    11/22/2014 04:15      0.0       80      1.3       84     47.1     47.7     46.7       75     1017     0.00        0     13.6
    11/22/2014 04:30      0.5      343      2.6      293     47.2     47.7     46.7       74     1017     0.00        0     13.6
    11/22/2014 04:45      0.1      295      1.7      300     46.9     47.1     46.7       73     1017     0.00        0     13.6
    11/22/2014 05:00      0.2      336      1.6      318     46.9     47.1     46.6       73     1017     0.00        0     13.6
    11/22/2014 05:15      0.2      340      1.4      348     47.1     47.5     46.6       72     1017     0.00        0     13.6
    11/22/2014 05:30      0.2      342      1.7      341     47.6     48.2     46.9       68     1017     0.00        0     13.6
    11/22/2014 05:45      0.0        0      0.0      302     47.0     47.5     46.6       70     1017     0.00        0     13.6
    11/22/2014 06:00      0.6      349      2.7      352     47.1     47.8     46.6       68     1017     0.00        0     13.6
    11/22/2014 06:15      0.1      171      1.4      173     46.5     47.6     45.8       72     1017     0.00        0     13.6
    11/22/2014 06:30      0.3      341      2.0      345     46.3     46.9     45.8       71     1017     0.00        1     13.6
    11/22/2014 06:45      0.2       20      1.8      354     46.7     47.0     46.4       71     1017     0.00        6     13.6
    11/22/2014 07:00      0.0        0      0.0       86     46.6     47.1     46.4       73     1017     0.00       28     13.6
    11/22/2014 07:15      0.0      335      1.0      331     47.4     48.2     47.0       69     1018     0.00       33     13.6
    11/22/2014 07:30      0.0        0      0.0      333     48.7     50.2     48.0       66     1017     0.00       39     13.6
    11/22/2014 07:45      0.1      353      1.4      103     50.6     51.6     50.0       63     1018     0.00       42     13.6
    11/22/2014 08:00      0.5       96      2.5       95     53.0     53.9     51.5       57     1017     0.00       47     13.5
    11/22/2014 08:15      0.0       78      0.7       84     55.1     56.2     53.9       51     1018     0.00       82     13.5